createdAt,value
2022-11-21T00:01:32.236Z,96296.88
2022-11-21T00:04:01.351Z,96283.16
2022-11-21T00:06:30.225Z,96301.50
2022-11-21T00:08:58.939Z,96299.09
2022-11-21T00:11:27.718Z,96289.53
2022-11-21T00:13:56.457Z,96300.28
2022-11-21T00:16:25.147Z,96295.88
2022-11-21T00:18:53.866Z,96311.84
2022-11-21T00:21:22.687Z,96306.47
2022-11-21T00:23:53.479Z,96299.72
2022-11-21T00:26:22.357Z,96306.91
2022-11-21T00:28:51.113Z,96314.88
2022-11-21T00:31:22.159Z,96304.13
2022-11-21T00:33:51.253Z,96315.25
2022-11-21T00:36:20.100Z,96312.88
2022-11-21T00:38:49.030Z,96308.09
2022-11-21T00:41:17.936Z,96316.28
2022-11-21T00:43:46.658Z,96310.09
2022-11-21T00:46:15.369Z,96321.47
2022-11-21T00:48:44.112Z,96316.66
2022-11-21T00:51:12.862Z,96332.19
2022-11-21T00:53:41.873Z,96330.41
2022-11-21T00:56:10.917Z,96336.19
2022-11-21T00:58:39.876Z,96342.34
2022-11-21T01:01:13.228Z,96345.91
2022-11-21T01:03:42.817Z,96338.34
2022-11-21T01:06:14.201Z,96356.47
2022-11-21T01:08:45.591Z,96351.28
2022-11-21T01:11:20.732Z,96343.72
2022-11-21T01:13:50.299Z,96338.75
2022-11-21T01:16:22.594Z,96341.53
2022-11-21T01:18:51.564Z,96348.69
2022-11-21T01:21:23.605Z,96346.88
2022-11-21T01:23:53.215Z,96357.06
2022-11-21T01:26:24.226Z,96354.84
2022-11-21T01:28:53.740Z,96356.47
2022-11-21T01:31:27.914Z,96351.50
2022-11-21T01:33:59.724Z,96352.91
2022-11-21T01:36:30.954Z,96345.91
2022-11-21T01:39:02.790Z,96344.94
2022-11-21T01:41:35.821Z,96345.94
2022-11-21T01:44:19.791Z,96342.16
2022-11-21T01:46:49.706Z,96343.97
2022-11-21T01:49:21.173Z,96345.78
2022-11-21T01:52:02.178Z,96350.34
2022-11-21T01:55:09.651Z,96349.56
2022-11-21T01:57:45.753Z,96346.34
2022-11-21T02:00:18.232Z,96347.31
2022-11-21T02:02:52.260Z,96336.16
2022-11-21T02:05:26.350Z,96332.34
2022-11-21T02:08:01.985Z,96314.78
2022-11-21T02:10:30.826Z,96320.88
2022-11-21T02:13:01.108Z,96314.88
2022-11-21T02:15:30.765Z,96310.25
2022-11-21T02:17:59.619Z,96314.38
2022-11-21T02:20:29.938Z,96302.13
2022-11-21T02:23:30.983Z,96313.47
2022-11-21T02:26:00.359Z,96317.53
2022-11-21T02:28:30.153Z,96325.34
2022-11-21T02:30:58.958Z,96327.13
2022-11-21T02:33:27.810Z,96316.84
2022-11-21T02:36:02.803Z,96304.84
2022-11-21T02:38:38.256Z,96307.38
2022-11-21T02:41:27.019Z,96300.88
2022-11-21T02:44:06.463Z,96302.09
2022-11-21T02:46:36.694Z,96302.34
2022-11-21T02:49:08.881Z,96304.50
2022-11-21T02:51:37.692Z,96305.16
2022-11-21T02:54:06.454Z,96323.41
2022-11-21T02:56:35.378Z,96313.63
2022-11-21T02:59:04.531Z,96322.13
2022-11-21T03:01:33.667Z,96321.13
2022-11-21T03:04:02.753Z,96326.09
2022-11-21T03:06:31.665Z,96319.75
2022-11-21T03:09:00.365Z,96315.22
2022-11-21T03:11:29.130Z,96311.34
2022-11-21T03:13:57.862Z,96321.97
2022-11-21T03:16:26.678Z,96318.44
2022-11-21T03:18:55.439Z,96319.00
2022-11-21T03:21:24.289Z,96330.78
2022-11-21T03:23:52.929Z,96341.03
2022-11-21T03:26:21.637Z,96328.53
2022-11-21T03:28:50.388Z,96327.31
2022-11-21T03:31:19.128Z,96331.56
2022-11-21T03:33:47.946Z,96331.19
2022-11-21T03:36:16.808Z,96331.41
2022-11-21T03:38:45.649Z,96331.72
2022-11-21T03:41:34.502Z,96334.63
2022-11-21T03:44:08.659Z,96331.09
2022-11-21T03:46:42.356Z,96331.38
2022-11-21T03:49:12.525Z,96339.69
2022-11-21T03:51:41.402Z,96330.56
2022-11-21T03:54:10.243Z,96323.91
2022-11-21T03:56:40.505Z,96342.16
2022-11-21T03:59:09.261Z,96342.75
2022-11-21T04:01:38.723Z,96345.69
2022-11-21T04:04:07.764Z,96341.59
2022-11-21T04:06:36.627Z,96349.28
2022-11-21T04:09:05.606Z,96352.25
2022-11-21T04:11:34.364Z,96358.91
2022-11-21T04:14:03.182Z,96355.13
2022-11-21T04:16:31.945Z,96342.06
2022-11-21T04:19:00.719Z,96358.13
2022-11-21T04:21:29.585Z,96349.09
2022-11-21T04:23:58.357Z,96343.16
2022-11-21T04:26:27.244Z,96341.56
2022-11-21T04:28:56.046Z,96346.19
2022-11-21T04:31:24.806Z,96342.31
2022-11-21T04:33:53.594Z,96343.16
2022-11-21T04:36:22.284Z,96351.16
2022-11-21T04:38:51.122Z,96350.78
2022-11-21T04:41:19.859Z,96349.81
2022-11-21T04:43:48.648Z,96352.88
2022-11-21T04:46:17.343Z,96341.13
2022-11-21T04:48:46.119Z,96351.44
2022-11-21T04:51:14.963Z,96346.22
2022-11-21T04:53:43.793Z,96340.78
2022-11-21T04:56:16.893Z,96336.78
2022-11-21T04:58:45.804Z,96325.31
2022-11-21T05:01:15.583Z,96320.63
2022-11-21T05:03:44.589Z,96322.19
2022-11-21T05:06:13.337Z,96322.09
2022-11-21T05:08:42.091Z,96317.31
2022-11-21T05:11:29.391Z,96338.97
2022-11-21T05:13:58.297Z,96336.59
2022-11-21T05:16:27.195Z,96332.03
2022-11-21T05:18:56.103Z,96331.91
2022-11-21T05:21:24.937Z,96333.94
2022-11-21T05:23:53.724Z,96339.19
2022-11-21T05:26:22.564Z,96341.56
2022-11-21T05:28:51.346Z,96338.59
2022-11-21T05:31:20.190Z,96340.66
2022-11-21T05:33:48.972Z,96353.09
2022-11-21T05:36:17.823Z,96339.84
2022-11-21T05:38:46.588Z,96346.28
2022-11-21T05:41:15.403Z,96345.59
2022-11-21T05:43:47.084Z,96354.78
2022-11-21T05:46:18.651Z,96355.66
2022-11-21T05:48:48.892Z,96347.50
2022-11-21T05:51:18.904Z,96356.28
2022-11-21T05:53:48.615Z,96362.19
2022-11-21T05:56:19.529Z,96361.66
2022-11-21T05:58:48.598Z,96341.16
2022-11-21T06:01:37.890Z,96361.69
2022-11-21T06:04:07.526Z,96364.38
2022-11-21T06:06:36.911Z,96360.94
2022-11-21T06:09:05.906Z,96348.75
2022-11-21T06:11:34.645Z,96354.03
2022-11-21T06:14:03.482Z,96355.97
2022-11-21T06:16:32.375Z,96346.00
2022-11-21T06:19:01.132Z,96343.41
2022-11-21T06:21:30.549Z,96352.50
2022-11-21T06:23:59.705Z,96343.00
2022-11-21T06:26:29.253Z,96347.94
2022-11-21T06:28:58.028Z,96345.69
2022-11-21T06:31:28.357Z,96337.38
2022-11-21T06:34:00.520Z,96338.09
2022-11-21T06:36:29.315Z,96346.91
2022-11-21T06:38:58.066Z,96350.09
2022-11-21T06:41:30.754Z,96346.13
2022-11-21T06:44:03.652Z,96359.91
2022-11-21T06:46:32.399Z,96346.69
2022-11-21T06:49:01.221Z,96356.00
2022-11-21T06:51:30.189Z,96356.28
2022-11-21T06:54:00.079Z,96354.97
2022-11-21T06:56:30.876Z,96339.22
2022-11-21T06:58:59.922Z,96345.69
2022-11-21T07:01:29.552Z,96338.28
2022-11-21T07:03:58.569Z,96345.31
2022-11-21T07:06:27.833Z,96350.31
2022-11-21T07:09:32.302Z,96340.22
2022-11-21T07:11:45.474Z,96347.78
2022-11-21T07:14:14.297Z,96355.06
2022-11-21T07:16:43.157Z,96359.41
2022-11-21T07:19:12.433Z,96356.84
2022-11-21T07:21:41.226Z,96341.44
2022-11-21T07:24:10.095Z,96346.97
2022-11-21T07:26:38.890Z,96350.69
2022-11-21T07:29:07.667Z,96353.22
2022-11-21T07:31:36.461Z,96344.00
2022-11-21T07:34:05.197Z,96353.41
2022-11-21T07:36:34.120Z,96354.66
2022-11-21T07:39:03.565Z,96365.66
2022-11-21T07:41:32.322Z,96358.84
2022-11-21T07:44:01.149Z,96353.94
2022-11-21T07:46:29.966Z,96356.38
2022-11-21T07:49:03.104Z,96362.31
2022-11-21T07:51:32.400Z,96362.22
2022-11-21T07:54:01.196Z,96349.88
2022-11-21T07:56:30.118Z,96354.22
2022-11-21T07:58:58.938Z,96352.13
2022-11-21T08:01:28.753Z,96357.38
2022-11-21T08:03:57.744Z,96355.28
2022-11-21T08:06:26.672Z,96358.56
2022-11-21T08:08:55.756Z,96362.00
2022-11-21T08:11:24.534Z,96353.03
2022-11-21T08:13:53.305Z,96358.94
2022-11-21T08:16:23.363Z,96352.97
2022-11-21T08:18:52.161Z,96354.94
2022-11-21T08:21:20.995Z,96364.88
2022-11-21T08:23:50.114Z,96368.00
2022-11-21T08:26:19.130Z,96367.19
2022-11-21T08:28:48.009Z,96372.75
2022-11-21T08:31:16.838Z,96377.69
2022-11-21T08:33:45.691Z,96376.94
2022-11-21T08:36:14.579Z,96374.38
2022-11-21T08:38:43.380Z,96381.03
2022-11-21T08:41:31.734Z,96376.19
2022-11-21T08:44:00.538Z,96373.22
2022-11-21T08:46:30.711Z,96374.72
2022-11-21T08:48:59.485Z,96379.44
2022-11-21T08:51:28.336Z,96387.06
2022-11-21T08:53:57.224Z,96396.06
2022-11-21T08:56:26.306Z,96401.97
2022-11-21T08:58:55.383Z,96417.03
2022-11-21T09:01:25.506Z,96420.66
2022-11-21T09:03:54.599Z,96415.13
2022-11-21T09:06:23.416Z,96413.19
2022-11-21T09:08:52.260Z,96417.34
2022-11-21T09:11:21.155Z,96420.38
2022-11-21T09:14:09.806Z,96417.03
2022-11-21T09:17:01.889Z,96423.25
2022-11-21T09:19:31.406Z,96419.50
2022-11-21T09:22:00.294Z,96428.47
2022-11-21T09:24:29.142Z,96433.47
2022-11-21T09:26:58.004Z,96434.06
2022-11-21T09:29:27.079Z,96439.63
2022-11-21T09:31:56.110Z,96439.63
2022-11-21T09:34:25.910Z,96443.59
2022-11-21T09:36:56.110Z,96438.03
2022-11-21T09:39:25.060Z,96438.63
2022-11-21T09:42:27.756Z,96442.03
2022-11-21T09:45:37.948Z,96449.38
2022-11-21T09:48:16.684Z,96455.97
2022-11-21T09:50:54.800Z,96448.97
2022-11-21T09:53:29.685Z,96458.75
2022-11-21T09:56:11.650Z,96468.50
2022-11-21T09:58:44.980Z,96466.09
2022-11-21T10:01:15.687Z,96471.09
2022-11-21T10:03:47.742Z,96474.28
2022-11-21T10:06:27.714Z,96469.50
2022-11-21T10:09:03.016Z,96479.25
2022-11-21T10:12:21.113Z,96488.22
2022-11-21T10:15:08.149Z,96483.84
2022-11-21T10:17:36.688Z,96493.56
2022-11-21T10:20:29.776Z,96497.34
2022-11-21T10:23:10.456Z,96497.75
2022-11-21T10:25:40.197Z,96502.31
2022-11-21T10:28:28.554Z,96496.34
2022-11-21T10:30:59.799Z,96481.00
2022-11-21T10:33:34.419Z,96504.34
2022-11-21T10:36:15.343Z,96503.16
2022-11-21T10:38:46.077Z,96495.38
2022-11-21T10:41:47.963Z,96508.72
2022-11-21T10:44:47.651Z,96502.78
2022-11-21T10:47:38.225Z,96508.94
2022-11-21T10:50:09.951Z,96507.16
2022-11-21T10:52:48.237Z,96509.38
2022-11-21T10:55:37.266Z,96512.97
2022-11-21T11:01:05.932Z,96511.78
2022-11-21T11:03:34.770Z,96515.59
2022-11-21T11:06:03.554Z,96518.75
2022-11-21T11:08:52.078Z,96507.59
2022-11-21T11:11:26.636Z,96508.59
2022-11-21T11:14:15.207Z,96515.94
2022-11-21T11:16:46.512Z,96509.56
2022-11-21T11:19:15.200Z,96522.72
2022-11-21T11:21:46.107Z,96518.72
2022-11-21T11:24:14.715Z,96524.53
2022-11-21T11:30:12.401Z,96525.31
2022-11-21T11:32:42.090Z,96506.78
2022-11-21T11:35:14.270Z,96531.31
2022-11-21T11:37:45.465Z,96524.94
2022-11-21T11:40:23.108Z,96537.31
2022-11-21T11:43:47.563Z,96544.72
2022-11-21T11:46:48.567Z,96537.50
2022-11-21T11:49:23.918Z,96534.91
2022-11-21T11:54:51.467Z,96529.75
2022-11-21T11:57:20.856Z,96535.94
2022-11-21T12:03:11.850Z,96563.06
2022-11-21T12:05:57.523Z,96574.44
2022-11-21T12:08:41.932Z,96579.00
2022-11-21T12:11:48.467Z,96579.63
2022-11-21T12:17:49.277Z,96581.41
2022-11-21T12:20:35.111Z,96583.19
2022-11-21T12:23:07.512Z,96575.81
2022-11-21T12:28:52.084Z,96578.38
2022-11-21T12:31:37.256Z,96579.78
2022-11-21T12:34:30.229Z,96577.19
2022-11-21T12:37:48.492Z,96586.75
2022-11-21T12:40:44.482Z,96585.16
2022-11-21T12:43:12.792Z,96585.19
2022-11-21T12:45:56.133Z,96581.59
2022-11-21T12:48:56.017Z,96585.75
2022-11-21T12:52:25.019Z,96593.75
2022-11-21T12:55:12.107Z,96593.97
2022-11-21T13:01:00.481Z,96593.97
2022-11-21T13:03:57.829Z,96574.63
2022-11-21T13:06:42.319Z,96587.41
2022-11-21T13:09:17.109Z,96594.97
2022-11-21T13:12:29.070Z,96584.78
2022-11-21T13:15:32.873Z,96591.97
2022-11-21T13:18:27.067Z,96590.56
2022-11-21T13:20:55.928Z,96570.84
2022-11-21T13:23:43.025Z,96579.81
2022-11-21T13:26:26.789Z,96593.38
2022-11-21T13:32:41.855Z,96585.81
2022-11-21T13:35:22.518Z,96590.19
2022-11-21T13:37:51.311Z,96589.38
2022-11-21T13:40:30.350Z,96591.78
2022-11-21T13:43:32.759Z,96601.78
2022-11-21T13:46:02.379Z,96583.59
2022-11-21T13:49:14.041Z,96598.75
2022-11-21T13:52:05.987Z,96598.34
2022-11-21T13:55:00.933Z,96599.53
2022-11-21T13:57:53.371Z,96605.34
2022-11-21T14:00:56.182Z,96601.38
2022-11-21T14:04:03.160Z,96602.56
2022-11-21T14:07:17.630Z,96601.75
2022-11-21T14:09:51.985Z,96586.00
2022-11-21T14:12:37.129Z,96605.16
2022-11-21T14:15:13.975Z,96605.94
2022-11-21T14:17:48.658Z,96620.72
2022-11-21T14:21:09.258Z,96603.53
2022-11-21T14:23:47.100Z,96611.31
2022-11-21T14:26:20.671Z,96612.72
2022-11-21T14:28:49.733Z,96609.94
2022-11-21T14:31:37.080Z,96581.78
2022-11-21T14:34:05.831Z,96604.34
2022-11-21T14:36:34.536Z,96603.34
2022-11-21T14:42:12.612Z,96604.16
2022-11-21T14:44:41.622Z,96598.34
2022-11-21T14:47:25.662Z,96605.56
2022-11-21T14:50:00.837Z,96601.16
2022-11-21T14:52:34.795Z,96607.72
2022-11-21T14:55:42.254Z,96601.34
2022-11-21T14:58:17.014Z,96609.75
2022-11-21T15:01:20.102Z,96619.50
2022-11-21T15:03:57.380Z,96604.13
2022-11-21T15:06:30.421Z,96612.13
2022-11-21T15:12:10.106Z,96620.69
2022-11-21T15:15:19.709Z,96618.09
2022-11-21T15:23:30.566Z,96623.09
2022-11-21T15:28:57.333Z,96625.69
2022-11-21T15:31:26.209Z,96624.06
2022-11-21T15:37:16.179Z,96621.91
2022-11-21T15:39:48.044Z,96623.50
2022-11-21T15:42:34.878Z,96634.25
2022-11-21T15:45:19.898Z,96633.88
2022-11-21T15:47:49.959Z,96630.09
2022-11-21T15:50:22.888Z,96622.28
2022-11-21T15:52:53.099Z,96616.31
2022-11-21T15:55:26.811Z,96622.13
2022-11-21T15:57:15.929Z,96631.88
2022-11-21T16:00:41.183Z,96612.53
2022-11-21T16:03:09.971Z,96607.34
2022-11-21T16:05:39.448Z,96615.34
2022-11-21T16:08:08.083Z,96611.94
2022-11-21T16:10:36.769Z,96615.34
2022-11-21T16:13:05.537Z,96614.09
2022-11-21T16:15:35.505Z,96627.09
2022-11-21T16:18:04.207Z,96616.31
2022-11-21T16:20:32.881Z,96628.31
2022-11-21T16:23:01.595Z,96618.50
2022-11-21T16:25:30.210Z,96616.72
2022-11-21T16:28:02.895Z,96624.50
2022-11-21T16:30:34.508Z,96625.09
2022-11-21T16:33:03.247Z,96626.91
2022-11-21T16:35:32.923Z,96620.31
2022-11-21T16:38:01.817Z,96614.69
2022-11-21T16:40:30.433Z,96636.06
2022-11-21T16:43:11.178Z,96620.09
2022-11-21T16:45:40.381Z,96618.47
2022-11-21T16:48:09.021Z,96626.22
2022-11-21T16:50:37.718Z,96625.59
2022-11-21T16:53:06.397Z,96623.38
2022-11-21T16:55:35.289Z,96630.09
2022-11-21T16:58:04.078Z,96628.09
2022-11-21T17:03:39.368Z,96643.22
2022-11-21T17:06:09.439Z,96640.81
2022-11-21T17:08:38.971Z,96648.59
2022-11-21T17:11:32.268Z,96649.03
2022-11-21T17:14:03.930Z,96650.00
2022-11-21T17:16:34.861Z,96643.81
2022-11-21T17:19:05.097Z,96662.13
2022-11-21T17:21:34.748Z,96652.31
2022-11-21T17:24:03.491Z,96648.34
2022-11-21T17:26:32.143Z,96637.97
2022-11-21T17:29:03.935Z,96642.56
2022-11-21T17:31:33.402Z,96647.72
2022-11-21T17:34:02.502Z,96648.53
2022-11-21T17:36:34.835Z,96644.16
2022-11-21T17:39:04.093Z,96635.97
2022-11-21T17:41:32.846Z,96636.78
2022-11-21T17:44:02.088Z,96637.56
2022-11-21T17:46:30.756Z,96639.13
2022-11-21T17:49:00.093Z,96628.13
2022-11-21T17:51:32.832Z,96638.91
2022-11-21T17:54:02.605Z,96635.53
2022-11-21T17:56:34.785Z,96642.72
2022-11-21T17:59:04.898Z,96637.16
2022-11-21T18:01:35.151Z,96627.19
2022-11-21T18:04:10.324Z,96634.38
2022-11-21T18:06:43.837Z,96626.00
2022-11-21T18:09:13.603Z,96626.19
2022-11-21T18:11:42.408Z,96633.16
2022-11-21T18:14:13.324Z,96636.94
2022-11-21T18:16:47.640Z,96631.34
2022-11-21T18:19:19.682Z,96630.91
2022-11-21T18:21:48.546Z,96629.91
2022-11-21T18:24:17.134Z,96625.13
2022-11-21T18:26:46.979Z,96628.72
2022-11-21T18:32:05.256Z,96621.72
2022-11-21T18:34:33.974Z,96621.72
2022-11-21T18:37:02.619Z,96626.94
2022-11-21T18:39:31.480Z,96603.25
2022-11-21T18:42:00.307Z,96621.41
2022-11-21T18:44:28.939Z,96621.84
2022-11-21T18:46:57.604Z,96621.84
2022-11-21T18:49:26.537Z,96630.97
2022-11-21T18:51:55.426Z,96630.97
2022-11-21T18:54:24.010Z,96629.56
2022-11-21T18:56:53.050Z,96633.34
2022-11-21T18:59:21.680Z,96622.56
2022-11-21T19:01:50.981Z,96619.03
2022-11-21T19:04:19.719Z,96619.63
2022-11-21T19:06:48.409Z,96624.63
2022-11-21T19:09:17.094Z,96620.22
2022-11-21T19:11:45.812Z,96621.59
2022-11-21T19:14:14.598Z,96626.03
2022-11-21T19:16:43.279Z,96632.81
2022-11-21T19:22:02.167Z,96639.09
2022-11-21T19:24:30.858Z,96631.16
2022-11-21T19:27:00.478Z,96630.16
2022-11-21T19:29:30.821Z,96623.38
2022-11-21T19:31:59.637Z,96624.75
2022-11-21T19:34:28.191Z,96643.69
2022-11-21T19:36:56.863Z,96643.06
2022-11-21T19:39:25.579Z,96630.22
2022-11-21T19:41:54.538Z,96641.97
2022-11-21T19:44:23.236Z,96650.25
2022-11-21T19:46:51.831Z,96646.81
2022-11-21T19:49:20.677Z,96646.59
2022-11-21T19:51:49.288Z,96649.78
2022-11-21T19:54:17.994Z,96653.31
2022-11-21T19:56:46.718Z,96653.31
2022-11-21T19:59:15.813Z,96641.31
2022-11-21T20:01:51.059Z,96648.72
2022-11-21T20:04:21.010Z,96647.72
2022-11-21T20:06:49.811Z,96652.88
2022-11-21T20:09:25.178Z,96646.72
2022-11-21T20:11:53.835Z,96650.28
2022-11-21T20:14:23.172Z,96655.47
2022-11-21T20:16:53.492Z,96663.84
2022-11-21T20:19:24.585Z,96649.31
2022-11-21T20:21:53.648Z,96647.72
2022-11-21T20:24:22.294Z,96647.34
2022-11-21T20:26:50.937Z,96652.75
2022-11-21T20:29:19.638Z,96649.34
2022-11-21T20:31:48.729Z,96656.94
2022-11-21T20:34:17.456Z,96651.75
2022-11-21T20:36:47.233Z,96649.97
2022-11-21T20:39:20.059Z,96646.91
2022-11-21T20:41:49.073Z,96653.03
2022-11-21T20:45:20.350Z,96650.81
2022-11-21T20:47:12.701Z,96651.94
2022-11-21T20:49:41.325Z,96653.19
2022-11-21T20:53:43.780Z,96660.28
2022-11-21T20:54:58.663Z,96656.34
2022-11-21T20:57:28.026Z,96653.28
2022-11-21T20:59:56.674Z,96646.19
2022-11-21T21:02:25.593Z,96646.31
2022-11-21T21:04:54.342Z,96648.06
2022-11-21T21:07:23.094Z,96653.75
2022-11-21T21:09:51.831Z,96653.25
2022-11-21T21:12:20.454Z,96659.78
2022-11-21T21:14:49.050Z,96658.25
2022-11-21T21:17:17.686Z,96661.75
2022-11-21T21:19:46.250Z,96664.88
2022-11-21T21:22:15.113Z,96672.97
2022-11-21T21:24:43.740Z,96669.34
2022-11-21T21:27:12.403Z,96680.63
2022-11-21T21:29:41.077Z,96673.41
2022-11-21T21:32:10.065Z,96671.19
2022-11-21T21:34:38.813Z,96670.41
2022-11-21T21:37:07.647Z,96673.00
2022-11-21T21:39:36.311Z,96671.19
2022-11-21T21:42:05.058Z,96668.34
2022-11-21T21:44:33.965Z,96671.09
2022-11-21T21:47:02.910Z,96675.03
2022-11-21T21:49:31.610Z,96672.34
2022-11-21T21:52:00.382Z,96679.13
2022-11-21T21:54:30.267Z,96675.00
2022-11-21T21:56:59.206Z,96680.81
2022-11-21T21:59:27.869Z,96686.94
2022-11-21T22:01:57.098Z,96688.28
2022-11-21T22:04:26.490Z,96685.41
2022-11-21T22:06:55.163Z,96678.75
2022-11-21T22:09:23.821Z,96681.19
2022-11-21T22:11:54.502Z,96697.81
2022-11-21T22:14:23.161Z,96699.38
2022-11-21T22:16:52.551Z,96699.94
2022-11-21T22:19:22.130Z,96694.06
2022-11-21T22:21:50.815Z,96696.16
2022-11-21T22:24:27.466Z,96703.00
2022-11-21T22:26:56.693Z,96700.31
2022-11-21T22:29:25.476Z,96710.16
2022-11-21T22:31:54.420Z,96710.34
2022-11-21T22:34:23.307Z,96711.94
2022-11-21T22:36:52.072Z,96709.88
2022-11-21T22:39:21.556Z,96708.16
2022-11-21T22:41:50.226Z,96717.78
2022-11-21T22:44:19.577Z,96723.28
2022-11-21T22:46:48.394Z,96718.00
2022-11-21T22:49:17.111Z,96727.84
2022-11-21T22:51:45.868Z,96722.56
2022-11-21T22:54:14.579Z,96719.56
2022-11-21T22:56:43.243Z,96724.59
2022-11-21T22:59:14.394Z,96726.50
2022-11-21T23:01:43.690Z,96726.25
2022-11-21T23:04:17.511Z,96720.63
2022-11-21T23:06:46.513Z,96708.25
2022-11-21T23:09:15.186Z,96718.38
2022-11-21T23:11:43.947Z,96733.03
2022-11-21T23:14:12.570Z,96733.38
2022-11-21T23:16:41.266Z,96733.09
2022-11-21T23:19:09.991Z,96720.94
2022-11-21T23:21:38.657Z,96735.72
2022-11-21T23:24:07.463Z,96740.06
2022-11-21T23:26:36.216Z,96740.06
2022-11-21T23:29:08.500Z,96735.41
2022-11-21T23:31:37.898Z,96737.53
2022-11-21T23:34:06.552Z,96741.59
2022-11-21T23:36:35.308Z,96738.88
2022-11-21T23:39:05.188Z,96742.88
2022-11-21T23:41:33.860Z,96750.91
2022-11-21T23:44:02.610Z,96744.19
2022-11-21T23:46:31.622Z,96749.47
2022-11-21T23:49:00.310Z,96756.41
2022-11-21T23:51:28.938Z,96754.16
2022-11-21T23:53:57.643Z,96756.25
2022-11-21T23:56:26.402Z,96752.41
2022-11-21T23:58:55.064Z,96770.91
